Rowe, Illinois
Current Conditions -  °F | °C
As of 1:35 PM on Thursday 27 Nov 2014 (Local Time) from KPNT Reporting Station
Light Snow Light Snow  
Wind Chill: 16°   Ceiling: 3200
Heat Index: 27°   Visibility: 5mi
Dew Point: 21°   Wind: 13mph
Humidity: 78%   Direction: 310°NW
Pressure: 30.38"   Gusts: NA
Location:  40.8602°N, 88.6284°W
Report Text: KPNT 271935Z AUTO 31011KT 5SM -SN SCT021 OVC032 M03/M06 A3038 RMK AO2 T10271060
Loading
Personal Weather Stations






























Interactive Weather Map New forecast layout! Learn more

10-Day Weather Forecast

Advertisements
Track Severe Weather on mobile